< Typhoon 201909 2019 Season Typhoon 201911 >
Typhoon 201910 (KROSA)
General InformationTrack Information on Google MapsDetailed Wind InformationForecast History on Google MapsAccess Analytics MapList of All Images || NewsDisaster Info.WeblogTrackbackTyphoon FrontTwiphoonTyphoon Now!Typhoon ImaginationJMA Disaster Info. XMLResourceGoogle EarthGE AnimationAtom FeedGeoJSON
Detalied Best Track (Time Zone = UTC)
Year Month Day Hour Lat. Long. Pressure (hPa) Wind (kt) Class Image Chart
2019 8 5 00 15.6 147.7 1004 0 2 Image Chart
2019 8 5 06 16.1 146.5 1000 0 2 Image Chart
2019 8 5 12 16.8 145.2 1000 0 2 Image Chart
2019 8 5 18 17.5 144.0 1000 0 2 Image Chart
2019 8 6 00 18.0 143.4 1000 0 2 Image Chart
2019 8 6 06 18.5 142.8 998 35 3 Image Chart
2019 8 6 12 18.9 142.4 996 40 3 Image Chart
2019 8 6 18 19.7 142.1 992 45 3 Image Chart
2019 8 7 00 20.5 141.9 990 50 4 Image Chart
2019 8 7 06 21.1 141.4 990 50 4 Image Chart
2019 8 7 12 21.5 141.0 980 60 4 Image Chart
2019 8 7 18 21.7 140.8 975 65 5 Image Chart
2019 8 8 00 21.9 140.5 970 70 5 Image Chart
2019 8 8 06 22.1 140.6 965 75 5 Image Chart
2019 8 8 12 22.1 140.7 965 75 5 Image Chart
2019 8 8 18 22.0 141.0 965 75 5 Image Chart
2019 8 9 00 22.0 141.1 965 75 5 Image Chart
2019 8 9 06 22.0 141.3 965 75 5 Image Chart
2019 8 9 12 22.2 141.4 965 75 5 Image Chart
2019 8 9 18 22.3 141.4 965 70 5 Image Chart
2019 8 10 00 22.7 141.3 965 70 5 Image Chart
2019 8 10 06 22.9 141.0 965 65 5 Image Chart
2019 8 10 12 22.8 140.7 965 65 5 Image Chart
2019 8 10 18 22.7 140.5 965 65 5 Image Chart
2019 8 11 00 23.1 140.3 965 65 5 Image Chart
2019 8 11 06 23.6 139.8 965 65 5 Image Chart
2019 8 11 12 24.0 139.2 965 60 4 Image Chart
2019 8 11 18 24.2 138.5 965 60 4 Image Chart
2019 8 12 00 24.7 138.0 965 60 4 Image Chart
2019 8 12 06 25.0 137.7 970 50 4 Image Chart
2019 8 12 12 25.9 137.1 970 50 4 Image Chart
2019 8 12 18 26.8 136.4 970 50 4 Image Chart
2019 8 13 00 27.4 135.2 970 50 4 Image Chart
2019 8 13 06 27.6 134.7 970 50 4 Image Chart
2019 8 13 12 28.1 134.3 970 50 4 Image Chart
2019 8 13 18 28.3 133.5 965 55 4 Image Chart
2019 8 13 21 28.4 133.4 965 55 4 Image Chart
2019 8 14 00 28.8 133.2 965 55 4 Image Chart
2019 8 14 03 29.1 133.1 965 55 4 Image Chart
2019 8 14 06 29.6 133.1 965 55 4 Image Chart
2019 8 14 09 30.1 133.0 965 55 4 Image Chart
2019 8 14 12 30.6 132.9 965 55 4 Image Chart
2019 8 14 15 30.8 132.7 965 55 4 Image Chart
2019 8 14 18 31.7 132.6 970 55 4 Image Chart
2019 8 14 21 32.2 132.6 975 55 4 Image Chart
2019 8 15 00 32.7 132.4 975 50 4 Image Chart
2019 8 15 02 33.4 132.3 975 50 4 Image Chart
2019 8 15 03 33.6 132.3 975 50 4 Image Chart
2019 8 15 06 34.3 132.6 978 45 3 Image Chart
2019 8 15 09 35.3 133.0 978 45 3 Image Chart
2019 8 15 12 36.2 133.1 980 45 3 Image Chart
2019 8 15 18 38.0 133.5 980 45 3 Image Chart
2019 8 16 00 39.9 134.3 980 45 3 Image Chart
2019 8 16 06 40.9 135.6 980 45 3 Image Chart
2019 8 16 12 43.0 138.0 984 0 6 Image Chart
2019 8 16 18 43.7 138.5 986 0 6 Image Chart
2019 8 17 00 44.4 140.1 990 0 6 Image Chart
2019 8 17 06 44.7 140.5 994 0 6 Image Chart
2019 8 17 12 45.1 141.0 1000 0 6 Image Chart
Japan Meteorological Agency Best Track Data | Correction Date : 2019-10-03
< Typhoon 201909 2019 Season Typhoon 201911 >

Help